Terminal Aerodrome Forecast
Issued by NWS

Current Version | Previous Version | Text Only | Print | Product List | Glossary Off
Versions: 1 2 3 4 5 6 7 8 9 10 11 12 13 14 15 16 17 18 19 20 21 22 23 24 25 26 27 28 29 30 31 32 33

982
FTUS41 KILN 240742 AAA
TAFLUK
TAF AMD
KLUK 240742Z 2408/2506 VRB03KT 4SM BR FEW100
      TEMPO 2408/2410 1/2SM FG
     FM241000 VRB03KT 5SM BR FEW025 SCT100
      TEMPO 2411/2414 BKN025
     FM241400 04008KT P6SM SCT040 SCT250
     FM250200 00000KT P6SM SCT250=

USA.gov is the U.S. government's official web portal to all federal, state and local government web resources and services.